sensor_id;sensor_type;location;lat;lon;timestamp;P1;durP1;ratioP1;P2;durP2;ratioP2
2562;SDS011;1291;51.420;6.970;2023-05-07T00:01:37;4.82;;;3.20;;
2562;SDS011;1291;51.420;6.970;2023-05-07T00:04:02;5.25;;;3.75;;
2562;SDS011;1291;51.420;6.970;2023-05-07T00:06:28;5.32;;;4.47;;
2562;SDS011;1291;51.420;6.970;2023-05-07T00:08:58;8.63;;;6.28;;
2562;SDS011;1291;51.420;6.970;2023-05-07T00:11:24;6.72;;;6.07;;
2562;SDS011;1291;51.420;6.970;2023-05-07T00:13:50;7.90;;;6.72;;
2562;SDS011;1291;51.420;6.970;2023-05-07T00:16:16;9.52;;;6.40;;
2562;SDS011;1291;51.420;6.970;2023-05-07T00:18:41;9.73;;;8.68;;
2562;SDS011;1291;51.420;6.970;2023-05-07T00:21:06;10.02;;;9.02;;
2562;SDS011;1291;51.420;6.970;2023-05-07T00:23:32;9.75;;;8.45;;
2562;SDS011;1291;51.420;6.970;2023-05-07T00:25:57;9.68;;;7.47;;
2562;SDS011;1291;51.420;6.970;2023-05-07T00:28:22;8.77;;;7.88;;
2562;SDS011;1291;51.420;6.970;2023-05-07T00:30:48;9.93;;;7.45;;
2562;SDS011;1291;51.420;6.970;2023-05-07T00:33:13;9.90;;;7.80;;
2562;SDS011;1291;51.420;6.970;2023-05-07T00:35:38;9.25;;;8.05;;
2562;SDS011;1291;51.420;6.970;2023-05-07T00:38:04;11.88;;;8.80;;
2562;SDS011;1291;51.420;6.970;2023-05-07T00:40:29;11.63;;;7.63;;
2562;SDS011;1291;51.420;6.970;2023-05-07T00:42:54;10.45;;;8.15;;
2562;SDS011;1291;51.420;6.970;2023-05-07T00:45:23;10.40;;;8.13;;
2562;SDS011;1291;51.420;6.970;2023-05-07T00:47:57;11.75;;;7.20;;
2562;SDS011;1291;51.420;6.970;2023-05-07T00:50:24;7.25;;;6.55;;
2562;SDS011;1291;51.420;6.970;2023-05-07T00:52:51;7.97;;;7.18;;
2562;SDS011;1291;51.420;6.970;2023-05-07T00:55:17;6.72;;;6.07;;
2562;SDS011;1291;51.420;6.970;2023-05-07T00:57:43;6.43;;;5.70;;
2562;SDS011;1291;51.420;6.970;2023-05-07T01:00:09;5.60;;;5.00;;
2562;SDS011;1291;51.420;6.970;2023-05-07T01:02:36;6.22;;;4.53;;
2562;SDS011;1291;51.420;6.970;2023-05-07T01:05:03;5.25;;;4.75;;
2562;SDS011;1291;51.420;6.970;2023-05-07T01:07:31;6.93;;;4.63;;
2562;SDS011;1291;51.420;6.970;2023-05-07T01:09:57;6.15;;;4.57;;
2562;SDS011;1291;51.420;6.970;2023-05-07T01:12:23;6.22;;;4.70;;
2562;SDS011;1291;51.420;6.970;2023-05-07T01:14:50;8.13;;;5.10;;
2562;SDS011;1291;51.420;6.970;2023-05-07T01:17:16;6.70;;;4.65;;
2562;SDS011;1291;51.420;6.970;2023-05-07T01:19:44;5.65;;;4.43;;
2562;SDS011;1291;51.420;6.970;2023-05-07T01:22:10;4.57;;;4.13;;
2562;SDS011;1291;51.420;6.970;2023-05-07T01:24:39;5.75;;;4.50;;
2562;SDS011;1291;51.420;6.970;2023-05-07T01:27:05;6.93;;;4.85;;
2562;SDS011;1291;51.420;6.970;2023-05-07T01:29:30;5.65;;;5.05;;
2562;SDS011;1291;51.420;6.970;2023-05-07T01:31:56;8.95;;;6.13;;
2562;SDS011;1291;51.420;6.970;2023-05-07T01:34:23;7.43;;;5.57;;
2562;SDS011;1291;51.420;6.970;2023-05-07T01:36:51;7.25;;;5.70;;
2562;SDS011;1291;51.420;6.970;2023-05-07T01:39:18;7.18;;;5.32;;
2562;SDS011;1291;51.420;6.970;2023-05-07T01:41:43;9.95;;;5.53;;
2562;SDS011;1291;51.420;6.970;2023-05-07T01:44:10;7.43;;;5.43;;
2562;SDS011;1291;51.420;6.970;2023-05-07T01:46:37;5.63;;;4.93;;
2562;SDS011;1291;51.420;6.970;2023-05-07T01:49:03;8.02;;;5.30;;
2562;SDS011;1291;51.420;6.970;2023-05-07T01:51:28;7.95;;;5.60;;
2562;SDS011;1291;51.420;6.970;2023-05-07T01:53:54;8.18;;;5.53;;
2562;SDS011;1291;51.420;6.970;2023-05-07T01:56:20;5.70;;;5.10;;
2562;SDS011;1291;51.420;6.970;2023-05-07T01:58:45;6.72;;;5.57;;
2562;SDS011;1291;51.420;6.970;2023-05-07T02:01:12;7.97;;;5.57;;
2562;SDS011;1291;51.420;6.970;2023-05-07T02:03:38;5.90;;;4.80;;
2562;SDS011;1291;51.420;6.970;2023-05-07T02:06:03;6.85;;;4.43;;
2562;SDS011;1291;51.420;6.970;2023-05-07T02:08:29;7.82;;;5.40;;
2562;SDS011;1291;51.420;6.970;2023-05-07T02:10:55;6.65;;;5.07;;
2562;SDS011;1291;51.420;6.970;2023-05-07T02:13:20;7.15;;;5.35;;
2562;SDS011;1291;51.420;6.970;2023-05-07T02:15:47;7.70;;;5.25;;
2562;SDS011;1291;51.420;6.970;2023-05-07T02:18:15;5.22;;;4.72;;
2562;SDS011;1291;51.420;6.970;2023-05-07T02:20:41;7.50;;;4.72;;
2562;SDS011;1291;51.420;6.970;2023-05-07T02:23:07;4.72;;;4.32;;
2562;SDS011;1291;51.420;6.970;2023-05-07T02:25:32;8.55;;;4.63;;
2562;SDS011;1291;51.420;6.970;2023-05-07T02:27:58;6.63;;;5.18;;
2562;SDS011;1291;51.420;6.970;2023-05-07T02:30:24;7.05;;;5.00;;
2562;SDS011;1291;51.420;6.970;2023-05-07T02:32:50;6.20;;;5.05;;
2562;SDS011;1291;51.420;6.970;2023-05-07T02:35:16;6.15;;;4.55;;
2562;SDS011;1291;51.420;6.970;2023-05-07T02:37:41;7.88;;;5.50;;
2562;SDS011;1291;51.420;6.970;2023-05-07T02:40:07;6.80;;;4.53;;
2562;SDS011;1291;51.420;6.970;2023-05-07T02:42:32;5.85;;;5.25;;
2562;SDS011;1291;51.420;6.970;2023-05-07T02:44:58;7.43;;;5.95;;
2562;SDS011;1291;51.420;6.970;2023-05-07T02:47:23;8.48;;;5.60;;
2562;SDS011;1291;51.420;6.970;2023-05-07T02:49:52;6.75;;;5.75;;
2562;SDS011;1291;51.420;6.970;2023-05-07T02:52:18;6.05;;;5.05;;
2562;SDS011;1291;51.420;6.970;2023-05-07T02:54:43;7.78;;;5.00;;
2562;SDS011;1291;51.420;6.970;2023-05-07T02:57:09;5.60;;;5.10;;
2562;SDS011;1291;51.420;6.970;2023-05-07T02:59:34;6.13;;;5.40;;
2562;SDS011;1291;51.420;6.970;2023-05-07T03:01:59;7.13;;;5.00;;
2562;SDS011;1291;51.420;6.970;2023-05-07T03:04:25;8.40;;;5.80;;
2562;SDS011;1291;51.420;6.970;2023-05-07T03:06:50;8.35;;;5.93;;
2562;SDS011;1291;51.420;6.970;2023-05-07T03:09:15;8.82;;;5.00;;
2562;SDS011;1291;51.420;6.970;2023-05-07T03:11:41;9.50;;;5.47;;
2562;SDS011;1291;51.420;6.970;2023-05-07T03:14:07;8.10;;;5.43;;
2562;SDS011;1291;51.420;6.970;2023-05-07T03:16:32;7.95;;;5.30;;
2562;SDS011;1291;51.420;6.970;2023-05-07T03:18:57;10.75;;;5.85;;
2562;SDS011;1291;51.420;6.970;2023-05-07T03:21:23;6.22;;;5.60;;
2562;SDS011;1291;51.420;6.970;2023-05-07T03:23:48;8.02;;;6.00;;
2562;SDS011;1291;51.420;6.970;2023-05-07T03:26:13;7.88;;;6.25;;
2562;SDS011;1291;51.420;6.970;2023-05-07T03:28:39;7.43;;;5.90;;
2562;SDS011;1291;51.420;6.970;2023-05-07T03:31:04;6.60;;;5.38;;
2562;SDS011;1291;51.420;6.970;2023-05-07T03:33:30;7.47;;;5.65;;
2562;SDS011;1291;51.420;6.970;2023-05-07T03:35:57;6.15;;;5.55;;
2562;SDS011;1291;51.420;6.970;2023-05-07T03:38:23;9.15;;;6.43;;
2562;SDS011;1291;51.420;6.970;2023-05-07T03:40:48;6.80;;;5.80;;
2562;SDS011;1291;51.420;6.970;2023-05-07T03:43:13;8.10;;;6.40;;
2562;SDS011;1291;51.420;6.970;2023-05-07T03:45:39;7.20;;;6.50;;
2562;SDS011;1291;51.420;6.970;2023-05-07T03:48:04;7.35;;;6.45;;
2562;SDS011;1291;51.420;6.970;2023-05-07T03:50:29;8.30;;;6.78;;
2562;SDS011;1291;51.420;6.970;2023-05-07T03:52:54;11.75;;;7.82;;
2562;SDS011;1291;51.420;6.970;2023-05-07T03:55:21;7.85;;;6.70;;
2562;SDS011;1291;51.420;6.970;2023-05-07T03:57:46;8.55;;;7.22;;
2562;SDS011;1291;51.420;6.970;2023-05-07T04:00:12;11.75;;;6.85;;
2562;SDS011;1291;51.420;6.970;2023-05-07T04:02:38;7.95;;;6.60;;
2562;SDS011;1291;51.420;6.970;2023-05-07T04:05:03;8.55;;;6.90;;
2562;SDS011;1291;51.420;6.970;2023-05-07T04:07:29;8.00;;;7.20;;
2562;SDS011;1291;51.420;6.970;2023-05-07T04:09:57;8.25;;;6.80;;
2562;SDS011;1291;51.420;6.970;2023-05-07T04:12:22;7.90;;;7.10;;
2562;SDS011;1291;51.420;6.970;2023-05-07T04:14:48;7.45;;;6.60;;
2562;SDS011;1291;51.420;6.970;2023-05-07T04:17:13;8.50;;;6.50;;
2562;SDS011;1291;51.420;6.970;2023-05-07T04:19:38;7.35;;;6.22;;
2562;SDS011;1291;51.420;6.970;2023-05-07T04:22:03;11.00;;;8.05;;
2562;SDS011;1291;51.420;6.970;2023-05-07T04:24:32;11.40;;;7.18;;
2562;SDS011;1291;51.420;6.970;2023-05-07T04:26:58;8.23;;;7.05;;
2562;SDS011;1291;51.420;6.970;2023-05-07T04:29:23;7.97;;;6.90;;
2562;SDS011;1291;51.420;6.970;2023-05-07T04:31:49;12.65;;;7.20;;
2562;SDS011;1291;51.420;6.970;2023-05-07T04:34:14;8.20;;;6.60;;
2562;SDS011;1291;51.420;6.970;2023-05-07T04:36:40;9.35;;;7.85;;
2562;SDS011;1291;51.420;6.970;2023-05-07T04:39:05;7.82;;;7.00;;
2562;SDS011;1291;51.420;6.970;2023-05-07T04:41:31;12.30;;;7.00;;
2562;SDS011;1291;51.420;6.970;2023-05-07T04:43:57;11.93;;;7.82;;
2562;SDS011;1291;51.420;6.970;2023-05-07T04:46:23;8.65;;;7.68;;
2562;SDS011;1291;51.420;6.970;2023-05-07T04:48:49;10.38;;;8.38;;
2562;SDS011;1291;51.420;6.970;2023-05-07T04:51:14;13.15;;;7.88;;
2562;SDS011;1291;51.420;6.970;2023-05-07T04:53:40;8.95;;;7.88;;
2562;SDS011;1291;51.420;6.970;2023-05-07T04:56:05;9.40;;;7.95;;
2562;SDS011;1291;51.420;6.970;2023-05-07T04:58:31;9.25;;;8.20;;
2562;SDS011;1291;51.420;6.970;2023-05-07T05:00:57;9.15;;;8.10;;
2562;SDS011;1291;51.420;6.970;2023-05-07T05:03:23;8.32;;;7.53;;
2562;SDS011;1291;51.420;6.970;2023-05-07T05:05:51;9.65;;;8.52;;
2562;SDS011;1291;51.420;6.970;2023-05-07T05:08:17;9.25;;;8.25;;
2562;SDS011;1291;51.420;6.970;2023-05-07T05:10:43;11.35;;;8.73;;
2562;SDS011;1291;51.420;6.970;2023-05-07T05:13:08;11.15;;;8.80;;
2562;SDS011;1291;51.420;6.970;2023-05-07T05:15:34;10.80;;;8.07;;
2562;SDS011;1291;51.420;6.970;2023-05-07T05:18:00;9.68;;;8.25;;
2562;SDS011;1291;51.420;6.970;2023-05-07T05:20:25;11.68;;;8.38;;
2562;SDS011;1291;51.420;6.970;2023-05-07T05:22:51;10.13;;;8.05;;
2562;SDS011;1291;51.420;6.970;2023-05-07T05:25:16;8.13;;;7.30;;
2562;SDS011;1291;51.420;6.970;2023-05-07T05:27:41;9.98;;;7.15;;
2562;SDS011;1291;51.420;6.970;2023-05-07T05:30:07;8.80;;;7.90;;
2562;SDS011;1291;51.420;6.970;2023-05-07T05:32:32;7.90;;;6.95;;
2562;SDS011;1291;51.420;6.970;2023-05-07T05:34:58;7.90;;;6.82;;
2562;SDS011;1291;51.420;6.970;2023-05-07T05:37:23;9.30;;;7.90;;
2562;SDS011;1291;51.420;6.970;2023-05-07T05:39:48;8.75;;;6.57;;
2562;SDS011;1291;51.420;6.970;2023-05-07T05:42:14;7.72;;;6.38;;
2562;SDS011;1291;51.420;6.970;2023-05-07T05:44:39;7.22;;;6.30;;
2562;SDS011;1291;51.420;6.970;2023-05-07T05:47:04;7.50;;;6.32;;
2562;SDS011;1291;51.420;6.970;2023-05-07T05:49:30;8.40;;;5.88;;
2562;SDS011;1291;51.420;6.970;2023-05-07T05:51:55;8.45;;;6.13;;
2562;SDS011;1291;51.420;6.970;2023-05-07T05:54:20;8.48;;;6.15;;
2562;SDS011;1291;51.420;6.970;2023-05-07T05:56:46;6.78;;;6.07;;
2562;SDS011;1291;51.420;6.970;2023-05-07T05:59:11;7.28;;;6.25;;
2562;SDS011;1291;51.420;6.970;2023-05-07T06:01:37;6.63;;;6.03;;
2562;SDS011;1291;51.420;6.970;2023-05-07T06:04:02;6.57;;;5.90;;
2562;SDS011;1291;51.420;6.970;2023-05-07T06:06:28;6.32;;;5.53;;
2562;SDS011;1291;51.420;6.970;2023-05-07T06:08:53;10.35;;;6.00;;
2562;SDS011;1291;51.420;6.970;2023-05-07T06:11:18;6.53;;;5.68;;
2562;SDS011;1291;51.420;6.970;2023-05-07T06:13:44;7.53;;;5.38;;
2562;SDS011;1291;51.420;6.970;2023-05-07T06:16:09;9.38;;;5.55;;
2562;SDS011;1291;51.420;6.970;2023-05-07T06:18:34;8.82;;;5.10;;
2562;SDS011;1291;51.420;6.970;2023-05-07T06:21:01;5.97;;;5.15;;
2562;SDS011;1291;51.420;6.970;2023-05-07T06:23:26;6.63;;;5.13;;
2562;SDS011;1291;51.420;6.970;2023-05-07T06:25:52;7.53;;;5.82;;
2562;SDS011;1291;51.420;6.970;2023-05-07T06:28:17;5.10;;;4.50;;
2562;SDS011;1291;51.420;6.970;2023-05-07T06:30:43;5.97;;;4.93;;
2562;SDS011;1291;51.420;6.970;2023-05-07T06:33:08;6.13;;;5.15;;
2562;SDS011;1291;51.420;6.970;2023-05-07T06:35:33;4.30;;;3.90;;
2562;SDS011;1291;51.420;6.970;2023-05-07T06:37:59;4.70;;;4.22;;
2562;SDS011;1291;51.420;6.970;2023-05-07T06:40:27;4.40;;;3.88;;
2562;SDS011;1291;51.420;6.970;2023-05-07T06:42:52;5.78;;;4.45;;
2562;SDS011;1291;51.420;6.970;2023-05-07T06:45:18;6.28;;;4.30;;
2562;SDS011;1291;51.420;6.970;2023-05-07T06:47:44;7.60;;;4.60;;
2562;SDS011;1291;51.420;6.970;2023-05-07T06:50:10;7.63;;;4.43;;
2562;SDS011;1291;51.420;6.970;2023-05-07T06:52:35;5.78;;;4.05;;
2562;SDS011;1291;51.420;6.970;2023-05-07T06:55:00;4.00;;;3.60;;
2562;SDS011;1291;51.420;6.970;2023-05-07T06:57:26;4.63;;;3.83;;
2562;SDS011;1291;51.420;6.970;2023-05-07T06:59:51;3.90;;;3.53;;
2562;SDS011;1291;51.420;6.970;2023-05-07T07:02:16;5.07;;;3.33;;
2562;SDS011;1291;51.420;6.970;2023-05-07T07:04:42;4.25;;;3.60;;
2562;SDS011;1291;51.420;6.970;2023-05-07T07:07:07;4.35;;;3.50;;
2562;SDS011;1291;51.420;6.970;2023-05-07T07:09:33;3.42;;;3.10;;
2562;SDS011;1291;51.420;6.970;2023-05-07T07:11:58;3.60;;;3.00;;
2562;SDS011;1291;51.420;6.970;2023-05-07T07:14:23;3.33;;;3.03;;
2562;SDS011;1291;51.420;6.970;2023-05-07T07:16:49;3.85;;;3.10;;
2562;SDS011;1291;51.420;6.970;2023-05-07T07:19:14;3.40;;;3.05;;
2562;SDS011;1291;51.420;6.970;2023-05-07T07:21:42;3.67;;;2.95;;
2562;SDS011;1291;51.420;6.970;2023-05-07T07:24:08;3.42;;;2.78;;
2562;SDS011;1291;51.420;6.970;2023-05-07T07:26:33;4.68;;;2.92;;
2562;SDS011;1291;51.420;6.970;2023-05-07T07:28:58;4.55;;;3.38;;
2562;SDS011;1291;51.420;6.970;2023-05-07T07:31:24;4.93;;;3.38;;
2562;SDS011;1291;51.420;6.970;2023-05-07T07:33:49;3.63;;;3.00;;
2562;SDS011;1291;51.420;6.970;2023-05-07T07:36:15;3.30;;;2.70;;
2562;SDS011;1291;51.420;6.970;2023-05-07T07:41:47;3.20;;;2.90;;
2562;SDS011;1291;51.420;6.970;2023-05-07T07:44:13;9.10;;;3.50;;
2562;SDS011;1291;51.420;6.970;2023-05-07T07:46:38;5.80;;;3.28;;
2562;SDS011;1291;51.420;6.970;2023-05-07T07:49:03;5.25;;;3.45;;
2562;SDS011;1291;51.420;6.970;2023-05-07T07:51:28;3.75;;;3.45;;
2562;SDS011;1291;51.420;6.970;2023-05-07T07:53:54;5.10;;;3.80;;
2562;SDS011;1291;51.420;6.970;2023-05-07T07:56:19;3.83;;;3.47;;
2562;SDS011;1291;51.420;6.970;2023-05-07T07:58:45;5.10;;;3.60;;
2562;SDS011;1291;51.420;6.970;2023-05-07T08:01:10;3.85;;;3.33;;
2562;SDS011;1291;51.420;6.970;2023-05-07T08:03:37;3.85;;;3.50;;
2562;SDS011;1291;51.420;6.970;2023-05-07T08:06:03;4.13;;;3.55;;
2562;SDS011;1291;51.420;6.970;2023-05-07T08:08:28;4.53;;;2.90;;
2562;SDS011;1291;51.420;6.970;2023-05-07T08:10:53;3.97;;;3.53;;
2562;SDS011;1291;51.420;6.970;2023-05-07T08:13:19;3.50;;;3.20;;
2562;SDS011;1291;51.420;6.970;2023-05-07T08:15:44;5.55;;;3.28;;
2562;SDS011;1291;51.420;6.970;2023-05-07T08:18:09;5.68;;;2.85;;
2562;SDS011;1291;51.420;6.970;2023-05-07T08:20:35;4.65;;;3.10;;
2562;SDS011;1291;51.420;6.970;2023-05-07T08:23:04;2.85;;;2.65;;
2562;SDS011;1291;51.420;6.970;2023-05-07T08:25:32;3.38;;;2.83;;
2562;SDS011;1291;51.420;6.970;2023-05-07T08:27:58;5.53;;;2.80;;
2562;SDS011;1291;51.420;6.970;2023-05-07T08:30:23;3.88;;;2.65;;
2562;SDS011;1291;51.420;6.970;2023-05-07T08:32:48;3.75;;;2.90;;
2562;SDS011;1291;51.420;6.970;2023-05-07T08:35:14;3.42;;;2.92;;
2562;SDS011;1291;51.420;6.970;2023-05-07T08:40:51;2.60;;;2.40;;
2562;SDS011;1291;51.420;6.970;2023-05-07T08:43:17;6.65;;;2.83;;
2562;SDS011;1291;51.420;6.970;2023-05-07T08:45:44;4.55;;;2.60;;
2562;SDS011;1291;51.420;6.970;2023-05-07T08:48:14;5.30;;;2.70;;
2562;SDS011;1291;51.420;6.970;2023-05-07T08:50:41;2.67;;;2.10;;
2562;SDS011;1291;51.420;6.970;2023-05-07T08:53:06;4.68;;;2.70;;
2562;SDS011;1291;51.420;6.970;2023-05-07T08:55:32;4.30;;;2.58;;
2562;SDS011;1291;51.420;6.970;2023-05-07T08:57:58;2.50;;;2.30;;
2562;SDS011;1291;51.420;6.970;2023-05-07T09:00:27;4.25;;;2.05;;
2562;SDS011;1291;51.420;6.970;2023-05-07T09:02:52;3.05;;;2.17;;
2562;SDS011;1291;51.420;6.970;2023-05-07T09:05:18;4.93;;;2.20;;
2562;SDS011;1291;51.420;6.970;2023-05-07T09:07:47;4.43;;;2.17;;
2562;SDS011;1291;51.420;6.970;2023-05-07T09:10:12;3.47;;;2.40;;
2562;SDS011;1291;51.420;6.970;2023-05-07T09:12:38;2.13;;;1.92;;
2562;SDS011;1291;51.420;6.970;2023-05-07T09:15:04;3.47;;;1.80;;
2562;SDS011;1291;51.420;6.970;2023-05-07T09:17:30;4.60;;;2.00;;
2562;SDS011;1291;51.420;6.970;2023-05-07T09:19:56;2.00;;;1.90;;
2562;SDS011;1291;51.420;6.970;2023-05-07T09:22:21;3.30;;;1.83;;
2562;SDS011;1291;51.420;6.970;2023-05-07T09:24:49;1.92;;;1.77;;
2562;SDS011;1291;51.420;6.970;2023-05-07T09:27:16;2.72;;;2.00;;
2562;SDS011;1291;51.420;6.970;2023-05-07T09:29:45;2.25;;;1.90;;
2562;SDS011;1291;51.420;6.970;2023-05-07T09:32:11;1.98;;;1.75;;
2562;SDS011;1291;51.420;6.970;2023-05-07T09:34:36;3.85;;;1.85;;
2562;SDS011;1291;51.420;6.970;2023-05-07T09:37:03;3.65;;;1.73;;
2562;SDS011;1291;51.420;6.970;2023-05-07T09:39:39;1.83;;;1.50;;
2562;SDS011;1291;51.420;6.970;2023-05-07T09:42:23;2.35;;;1.55;;
2562;SDS011;1291;51.420;6.970;2023-05-07T09:44:50;2.63;;;1.80;;
2562;SDS011;1291;51.420;6.970;2023-05-07T09:47:18;2.60;;;1.52;;
2562;SDS011;1291;51.420;6.970;2023-05-07T09:49:46;1.90;;;1.70;;
2562;SDS011;1291;51.420;6.970;2023-05-07T09:52:13;3.58;;;2.33;;
2562;SDS011;1291;51.420;6.970;2023-05-07T09:54:39;2.75;;;1.67;;
2562;SDS011;1291;51.420;6.970;2023-05-07T09:57:05;2.53;;;1.90;;
2562;SDS011;1291;51.420;6.970;2023-05-07T09:59:34;1.50;;;1.40;;
2562;SDS011;1291;51.420;6.970;2023-05-07T10:02:03;2.28;;;1.73;;
2562;SDS011;1291;51.420;6.970;2023-05-07T10:04:29;3.75;;;1.90;;
2562;SDS011;1291;51.420;6.970;2023-05-07T10:06:59;1.90;;;1.70;;
2562;SDS011;1291;51.420;6.970;2023-05-07T10:09:25;3.05;;;1.70;;
2562;SDS011;1291;51.420;6.970;2023-05-07T10:11:51;3.03;;;1.65;;
2562;SDS011;1291;51.420;6.970;2023-05-07T10:14:17;2.90;;;1.70;;
2562;SDS011;1291;51.420;6.970;2023-05-07T10:16:45;2.72;;;1.48;;
2562;SDS011;1291;51.420;6.970;2023-05-07T10:19:12;5.45;;;1.33;;
2562;SDS011;1291;51.420;6.970;2023-05-07T10:21:39;3.08;;;1.60;;
2562;SDS011;1291;51.420;6.970;2023-05-07T10:26:54;4.10;;;1.58;;
2562;SDS011;1291;51.420;6.970;2023-05-07T10:29:38;2.70;;;1.60;;
2562;SDS011;1291;51.420;6.970;2023-05-07T10:34:48;4.22;;;2.15;;
2562;SDS011;1291;51.420;6.970;2023-05-07T10:37:16;3.72;;;2.20;;
2562;SDS011;1291;51.420;6.970;2023-05-07T10:39:42;3.88;;;2.30;;
2562;SDS011;1291;51.420;6.970;2023-05-07T10:42:14;3.65;;;2.28;;
2562;SDS011;1291;51.420;6.970;2023-05-07T10:44:39;4.00;;;2.35;;
2562;SDS011;1291;51.420;6.970;2023-05-07T10:47:12;3.08;;;2.03;;
2562;SDS011;1291;51.420;6.970;2023-05-07T10:52:17;2.50;;;2.30;;
2562;SDS011;1291;51.420;6.970;2023-05-07T10:54:44;3.28;;;2.28;;
2562;SDS011;1291;51.420;6.970;2023-05-07T11:00:21;3.33;;;2.60;;
2562;SDS011;1291;51.420;6.970;2023-05-07T11:05:25;4.90;;;2.17;;
2562;SDS011;1291;51.420;6.970;2023-05-07T11:08:00;4.20;;;2.55;;
2562;SDS011;1291;51.420;6.970;2023-05-07T11:16:16;5.47;;;2.58;;
2562;SDS011;1291;51.420;6.970;2023-05-07T11:18:46;3.22;;;2.67;;
2562;SDS011;1291;51.420;6.970;2023-05-07T11:21:14;4.93;;;2.83;;
2562;SDS011;1291;51.420;6.970;2023-05-07T11:23:57;5.95;;;2.55;;
2562;SDS011;1291;51.420;6.970;2023-05-07T11:26:24;4.00;;;2.72;;
2562;SDS011;1291;51.420;6.970;2023-05-07T11:28:50;2.70;;;2.50;;
2562;SDS011;1291;51.420;6.970;2023-05-07T11:31:25;2.70;;;2.30;;
2562;SDS011;1291;51.420;6.970;2023-05-07T11:33:53;2.65;;;2.05;;
2562;SDS011;1291;51.420;6.970;2023-05-07T11:36:19;2.72;;;2.22;;
2562;SDS011;1291;51.420;6.970;2023-05-07T11:38:46;3.28;;;2.85;;
2562;SDS011;1291;51.420;6.970;2023-05-07T11:41:11;2.63;;;2.35;;
2562;SDS011;1291;51.420;6.970;2023-05-07T11:43:53;2.92;;;2.70;;
2562;SDS011;1291;51.420;6.970;2023-05-07T11:46:20;2.95;;;2.53;;
2562;SDS011;1291;51.420;6.970;2023-05-07T11:48:46;5.18;;;2.67;;
2562;SDS011;1291;51.420;6.970;2023-05-07T11:51:12;3.78;;;2.55;;
2562;SDS011;1291;51.420;6.970;2023-05-07T11:53:38;3.85;;;2.78;;
2562;SDS011;1291;51.420;6.970;2023-05-07T11:56:06;5.28;;;2.90;;
2562;SDS011;1291;51.420;6.970;2023-05-07T11:58:35;3.60;;;2.40;;
2562;SDS011;1291;51.420;6.970;2023-05-07T12:01:01;2.60;;;2.38;;
2562;SDS011;1291;51.420;6.970;2023-05-07T12:03:29;6.30;;;2.60;;
2562;SDS011;1291;51.420;6.970;2023-05-07T12:05:54;3.65;;;3.33;;
2562;SDS011;1291;51.420;6.970;2023-05-07T12:08:20;3.15;;;2.63;;
2562;SDS011;1291;51.420;6.970;2023-05-07T12:10:49;3.08;;;2.72;;
2562;SDS011;1291;51.420;6.970;2023-05-07T12:15:41;2.95;;;2.75;;
2562;SDS011;1291;51.420;6.970;2023-05-07T12:18:12;3.47;;;3.17;;
2562;SDS011;1291;51.420;6.970;2023-05-07T12:20:38;2.92;;;2.70;;
2562;SDS011;1291;51.420;6.970;2023-05-07T12:23:04;5.40;;;3.35;;
2562;SDS011;1291;51.420;6.970;2023-05-07T12:25:31;5.72;;;3.88;;
2562;SDS011;1291;51.420;6.970;2023-05-07T12:27:57;4.03;;;3.38;;
2562;SDS011;1291;51.420;6.970;2023-05-07T12:30:24;5.22;;;3.17;;
2562;SDS011;1291;51.420;6.970;2023-05-07T12:32:52;4.75;;;3.53;;
2562;SDS011;1291;51.420;6.970;2023-05-07T12:35:25;3.92;;;3.53;;
2562;SDS011;1291;51.420;6.970;2023-05-07T12:37:55;5.30;;;3.40;;
2562;SDS011;1291;51.420;6.970;2023-05-07T12:40:21;5.25;;;3.35;;
2562;SDS011;1291;51.420;6.970;2023-05-07T12:42:46;4.05;;;3.53;;
2562;SDS011;1291;51.420;6.970;2023-05-07T12:45:12;6.70;;;3.58;;
2562;SDS011;1291;51.420;6.970;2023-05-07T12:47:43;5.38;;;3.72;;
2562;SDS011;1291;51.420;6.970;2023-05-07T12:50:10;4.47;;;3.53;;
2562;SDS011;1291;51.420;6.970;2023-05-07T12:52:35;4.78;;;3.55;;
2562;SDS011;1291;51.420;6.970;2023-05-07T12:55:07;4.93;;;4.03;;
2562;SDS011;1291;51.420;6.970;2023-05-07T12:57:39;4.22;;;3.85;;
2562;SDS011;1291;51.420;6.970;2023-05-07T13:00:06;5.15;;;4.15;;
2562;SDS011;1291;51.420;6.970;2023-05-07T13:02:38;6.50;;;4.43;;
2562;SDS011;1291;51.420;6.970;2023-05-07T13:05:05;3.90;;;3.50;;
2562;SDS011;1291;51.420;6.970;2023-05-07T13:07:32;5.45;;;4.00;;
2562;SDS011;1291;51.420;6.970;2023-05-07T13:09:57;5.90;;;4.15;;
2562;SDS011;1291;51.420;6.970;2023-05-07T13:12:22;3.78;;;3.47;;
2562;SDS011;1291;51.420;6.970;2023-05-07T13:14:48;5.28;;;4.53;;
2562;SDS011;1291;51.420;6.970;2023-05-07T13:17:13;5.13;;;4.63;;
2562;SDS011;1291;51.420;6.970;2023-05-07T13:19:38;7.20;;;4.40;;
2562;SDS011;1291;51.420;6.970;2023-05-07T13:22:04;4.90;;;4.40;;
2562;SDS011;1291;51.420;6.970;2023-05-07T13:24:29;5.15;;;4.72;;
2562;SDS011;1291;51.420;6.970;2023-05-07T13:26:54;5.03;;;4.53;;
2562;SDS011;1291;51.420;6.970;2023-05-07T13:29:20;8.10;;;5.05;;
2562;SDS011;1291;51.420;6.970;2023-05-07T13:31:50;7.35;;;5.38;;
2562;SDS011;1291;51.420;6.970;2023-05-07T13:34:15;9.35;;;6.28;;
2562;SDS011;1291;51.420;6.970;2023-05-07T13:36:41;8.90;;;6.13;;
2562;SDS011;1291;51.420;6.970;2023-05-07T13:39:06;6.97;;;6.28;;
2562;SDS011;1291;51.420;6.970;2023-05-07T13:41:32;12.52;;;6.85;;
2562;SDS011;1291;51.420;6.970;2023-05-07T13:43:58;10.50;;;6.97;;
2562;SDS011;1291;51.420;6.970;2023-05-07T13:46:23;14.23;;;6.47;;
2562;SDS011;1291;51.420;6.970;2023-05-07T13:48:49;8.80;;;6.90;;
2562;SDS011;1291;51.420;6.970;2023-05-07T13:51:15;8.38;;;7.45;;
2562;SDS011;1291;51.420;6.970;2023-05-07T13:53:42;8.63;;;7.10;;
2562;SDS011;1291;51.420;6.970;2023-05-07T13:56:07;9.70;;;7.45;;
2562;SDS011;1291;51.420;6.970;2023-05-07T13:58:32;9.60;;;7.60;;
2562;SDS011;1291;51.420;6.970;2023-05-07T14:00:58;9.40;;;7.63;;
2562;SDS011;1291;51.420;6.970;2023-05-07T14:03:23;9.88;;;7.95;;
2562;SDS011;1291;51.420;6.970;2023-05-07T14:05:48;8.43;;;7.20;;
2562;SDS011;1291;51.420;6.970;2023-05-07T14:08:14;9.93;;;7.60;;
2562;SDS011;1291;51.420;6.970;2023-05-07T14:10:39;9.32;;;7.95;;
2562;SDS011;1291;51.420;6.970;2023-05-07T14:13:05;7.65;;;6.95;;
2562;SDS011;1291;51.420;6.970;2023-05-07T14:15:31;10.55;;;8.10;;
2562;SDS011;1291;51.420;6.970;2023-05-07T14:17:57;24.83;;;16.92;;
2562;SDS011;1291;51.420;6.970;2023-05-07T14:20:24;30.45;;;19.70;;
2562;SDS011;1291;51.420;6.970;2023-05-07T14:22:49;27.90;;;17.73;;
2562;SDS011;1291;51.420;6.970;2023-05-07T14:25:15;15.00;;;11.88;;
2562;SDS011;1291;51.420;6.970;2023-05-07T14:27:40;13.25;;;10.40;;
2562;SDS011;1291;51.420;6.970;2023-05-07T14:30:09;17.65;;;11.57;;
2562;SDS011;1291;51.420;6.970;2023-05-07T14:32:35;11.43;;;9.02;;
2562;SDS011;1291;51.420;6.970;2023-05-07T14:35:00;12.20;;;8.50;;
2562;SDS011;1291;51.420;6.970;2023-05-07T14:37:26;9.02;;;8.07;;
2562;SDS011;1291;51.420;6.970;2023-05-07T14:39:51;10.13;;;8.52;;
2562;SDS011;1291;51.420;6.970;2023-05-07T14:42:16;12.93;;;10.23;;
2562;SDS011;1291;51.420;6.970;2023-05-07T14:44:42;12.65;;;11.27;;
2562;SDS011;1291;51.420;6.970;2023-05-07T14:47:07;11.93;;;8.43;;
2562;SDS011;1291;51.420;6.970;2023-05-07T14:49:33;14.65;;;8.18;;
2562;SDS011;1291;51.420;6.970;2023-05-07T14:51:59;11.30;;;8.80;;
2562;SDS011;1291;51.420;6.970;2023-05-07T14:54:25;9.48;;;8.45;;
2562;SDS011;1291;51.420;6.970;2023-05-07T14:56:50;10.95;;;8.90;;
2562;SDS011;1291;51.420;6.970;2023-05-07T14:59:15;9.70;;;8.70;;
2562;SDS011;1291;51.420;6.970;2023-05-07T15:01:43;10.68;;;8.15;;
2562;SDS011;1291;51.420;6.970;2023-05-07T15:04:10;14.52;;;8.23;;
2562;SDS011;1291;51.420;6.970;2023-05-07T15:06:36;9.73;;;7.93;;
2562;SDS011;1291;51.420;6.970;2023-05-07T15:09:01;10.20;;;7.53;;
2562;SDS011;1291;51.420;6.970;2023-05-07T15:11:26;8.70;;;7.63;;
2562;SDS011;1291;51.420;6.970;2023-05-07T15:13:52;9.30;;;8.30;;
2562;SDS011;1291;51.420;6.970;2023-05-07T15:16:17;16.27;;;8.63;;
2562;SDS011;1291;51.420;6.970;2023-05-07T15:18:43;9.30;;;7.80;;
2562;SDS011;1291;51.420;6.970;2023-05-07T15:21:09;8.70;;;7.68;;
2562;SDS011;1291;51.420;6.970;2023-05-07T15:23:34;11.00;;;8.60;;
2562;SDS011;1291;51.420;6.970;2023-05-07T15:26:00;12.93;;;8.95;;
2562;SDS011;1291;51.420;6.970;2023-05-07T15:28:26;10.30;;;7.80;;
2562;SDS011;1291;51.420;6.970;2023-05-07T15:30:52;13.98;;;9.10;;
2562;SDS011;1291;51.420;6.970;2023-05-07T15:33:18;13.10;;;8.68;;
2562;SDS011;1291;51.420;6.970;2023-05-07T15:35:43;9.45;;;8.38;;